EmailTwitter


Observations de surface / Québec / CYSC

Régions: Québec | Canada | États-Unis | Europe | France | UK | Ailleurs
Station
Affichage
Infos & localisation pour CYSC | Aide pour décoder les METARs

Observations prises le 2018-02-22 à 10H00 UTC à SHERBROOKE, QB (CYSC)

Etat du ciel: dégagé.

Température: -8.0 Celsius

Point de rosée: -14.0 Celsius

Humidité relative: 62%

Facteur vent: -11.

Vents: Nord-ouest à 6 km/h ou 3 noeuds.

Pression au niveau moyen de la mer: 103.89 kilopascals.

Calage altimétrique: 103.76 kilopascals ou 30.64 pouces de mercure.

Visibilité horizontale: 9.00 milles terrestres ou 14.40 kilomètres.

Observation METAR:

CYSC 221000Z AUTO 32003KT 9SM CLR M08/M14 A3064 RMK SLP389=